sensor_id;sensor_type;location;lat;lon;timestamp;P1;durP1;ratioP1;P2;durP2;ratioP2
50851;SDS011;43953;45.508;-122.806;2023-02-02T00:00:18;10.45;;;7.13;;
50851;SDS011;43953;45.508;-122.806;2023-02-02T00:00:50;9.30;;;7.40;;
50851;SDS011;43953;45.508;-122.806;2023-02-02T00:01:22;10.70;;;7.30;;
50851;SDS011;43953;45.508;-122.806;2023-02-02T00:01:55;7.88;;;6.95;;
50851;SDS011;43953;45.508;-122.806;2023-02-02T00:02:29;9.57;;;7.80;;
50851;SDS011;43953;45.508;-122.806;2023-02-02T00:03:00;9.75;;;6.93;;
50851;SDS011;43953;45.508;-122.806;2023-02-02T00:03:32;9.10;;;6.65;;
50851;SDS011;43953;45.508;-122.806;2023-02-02T00:04:04;9.73;;;6.80;;
50851;SDS011;43953;45.508;-122.806;2023-02-02T00:04:35;7.80;;;6.70;;
50851;SDS011;43953;45.508;-122.806;2023-02-02T00:05:07;7.75;;;5.97;;
50851;SDS011;43953;45.508;-122.806;2023-02-02T00:05:46;7.88;;;6.53;;
50851;SDS011;43953;45.508;-122.806;2023-02-02T00:06:19;7.50;;;6.30;;
50851;SDS011;43953;45.508;-122.806;2023-02-02T00:06:52;9.80;;;6.85;;
50851;SDS011;43953;45.508;-122.806;2023-02-02T00:07:26;8.45;;;6.35;;
50851;SDS011;43953;45.508;-122.806;2023-02-02T00:07:58;7.30;;;6.45;;
50851;SDS011;43953;45.508;-122.806;2023-02-02T00:08:30;9.00;;;7.28;;
50851;SDS011;43953;45.508;-122.806;2023-02-02T00:09:02;9.68;;;6.70;;
50851;SDS011;43953;45.508;-122.806;2023-02-02T00:09:34;7.28;;;6.20;;
50851;SDS011;43953;45.508;-122.806;2023-02-02T00:10:05;9.27;;;6.45;;
50851;SDS011;43953;45.508;-122.806;2023-02-02T00:10:38;7.50;;;6.68;;
50851;SDS011;43953;45.508;-122.806;2023-02-02T00:11:10;10.18;;;6.68;;
50851;SDS011;43953;45.508;-122.806;2023-02-02T00:11:42;7.68;;;6.40;;
50851;SDS011;43953;45.508;-122.806;2023-02-02T00:12:15;7.70;;;6.43;;
50851;SDS011;43953;45.508;-122.806;2023-02-02T00:12:46;8.95;;;6.75;;
50851;SDS011;43953;45.508;-122.806;2023-02-02T00:13:18;8.80;;;6.82;;
50851;SDS011;43953;45.508;-122.806;2023-02-02T00:13:50;8.80;;;6.53;;
50851;SDS011;43953;45.508;-122.806;2023-02-02T00:14:21;8.82;;;6.55;;
50851;SDS011;43953;45.508;-122.806;2023-02-02T00:14:53;8.10;;;6.55;;
50851;SDS011;43953;45.508;-122.806;2023-02-02T00:15:25;7.82;;;6.32;;
50851;SDS011;43953;45.508;-122.806;2023-02-02T00:15:57;11.98;;;6.15;;
50851;SDS011;43953;45.508;-122.806;2023-02-02T00:17:00;8.98;;;6.32;;
50851;SDS011;43953;45.508;-122.806;2023-02-02T00:17:32;7.50;;;5.97;;
50851;SDS011;43953;45.508;-122.806;2023-02-02T00:18:03;9.82;;;6.35;;
50851;SDS011;43953;45.508;-122.806;2023-02-02T00:18:35;9.05;;;6.72;;
50851;SDS011;43953;45.508;-122.806;2023-02-02T00:19:08;8.38;;;6.47;;
50851;SDS011;43953;45.508;-122.806;2023-02-02T00:19:42;8.35;;;6.95;;
50851;SDS011;43953;45.508;-122.806;2023-02-02T00:20:16;7.78;;;6.40;;
50851;SDS011;43953;45.508;-122.806;2023-02-02T00:20:48;9.48;;;6.68;;
50851;SDS011;43953;45.508;-122.806;2023-02-02T00:21:21;8.13;;;6.03;;
50851;SDS011;43953;45.508;-122.806;2023-02-02T00:21:53;9.25;;;6.68;;
50851;SDS011;43953;45.508;-122.806;2023-02-02T00:22:25;8.73;;;6.90;;
50851;SDS011;43953;45.508;-122.806;2023-02-02T00:22:57;8.65;;;6.13;;
50851;SDS011;43953;45.508;-122.806;2023-02-02T00:23:29;8.65;;;6.50;;
50851;SDS011;43953;45.508;-122.806;2023-02-02T00:24:01;8.15;;;6.35;;
50851;SDS011;43953;45.508;-122.806;2023-02-02T00:24:32;9.55;;;6.63;;
50851;SDS011;43953;45.508;-122.806;2023-02-02T00:25:04;8.40;;;6.63;;
50851;SDS011;43953;45.508;-122.806;2023-02-02T00:25:36;8.32;;;6.45;;
50851;SDS011;43953;45.508;-122.806;2023-02-02T00:26:08;7.93;;;6.25;;
50851;SDS011;43953;45.508;-122.806;2023-02-02T00:26:41;10.02;;;7.00;;
50851;SDS011;43953;45.508;-122.806;2023-02-02T00:27:13;8.45;;;6.45;;
50851;SDS011;43953;45.508;-122.806;2023-02-02T00:27:44;7.53;;;6.35;;
50851;SDS011;43953;45.508;-122.806;2023-02-02T00:28:16;10.55;;;6.30;;
50851;SDS011;43953;45.508;-122.806;2023-02-02T00:28:48;9.20;;;6.70;;
50851;SDS011;43953;45.508;-122.806;2023-02-02T00:29:20;7.35;;;6.50;;
50851;SDS011;43953;45.508;-122.806;2023-02-02T00:29:54;8.55;;;6.40;;
50851;SDS011;43953;45.508;-122.806;2023-02-02T00:30:27;9.13;;;6.45;;
50851;SDS011;43953;45.508;-122.806;2023-02-02T00:30:58;9.73;;;6.47;;
50851;SDS011;43953;45.508;-122.806;2023-02-02T00:31:30;6.72;;;5.82;;
50851;SDS011;43953;45.508;-122.806;2023-02-02T00:32:02;8.25;;;5.80;;
50851;SDS011;43953;45.508;-122.806;2023-02-02T00:32:34;9.65;;;6.63;;
50851;SDS011;43953;45.508;-122.806;2023-02-02T00:33:06;9.50;;;6.45;;
50851;SDS011;43953;45.508;-122.806;2023-02-02T00:33:38;8.70;;;6.47;;
50851;SDS011;43953;45.508;-122.806;2023-02-02T00:34:12;7.15;;;6.05;;
50851;SDS011;43953;45.508;-122.806;2023-02-02T00:34:45;9.15;;;6.10;;
50851;SDS011;43953;45.508;-122.806;2023-02-02T00:35:17;8.05;;;6.35;;
50851;SDS011;43953;45.508;-122.806;2023-02-02T00:35:53;9.30;;;7.25;;
50851;SDS011;43953;45.508;-122.806;2023-02-02T00:36:25;7.63;;;6.00;;
50851;SDS011;43953;45.508;-122.806;2023-02-02T00:36:57;7.18;;;5.95;;
50851;SDS011;43953;45.508;-122.806;2023-02-02T00:37:28;9.18;;;6.20;;
50851;SDS011;43953;45.508;-122.806;2023-02-02T00:38:00;8.55;;;6.20;;
50851;SDS011;43953;45.508;-122.806;2023-02-02T00:38:32;7.13;;;5.97;;
50851;SDS011;43953;45.508;-122.806;2023-02-02T00:39:04;7.80;;;5.78;;
50851;SDS011;43953;45.508;-122.806;2023-02-02T00:39:36;8.98;;;6.35;;
50851;SDS011;43953;45.508;-122.806;2023-02-02T00:40:08;11.82;;;6.60;;
50851;SDS011;43953;45.508;-122.806;2023-02-02T00:40:41;8.38;;;6.15;;
50851;SDS011;43953;45.508;-122.806;2023-02-02T00:41:12;7.10;;;6.13;;
50851;SDS011;43953;45.508;-122.806;2023-02-02T00:41:45;7.57;;;5.93;;
50851;SDS011;43953;45.508;-122.806;2023-02-02T00:42:17;8.07;;;6.05;;
50851;SDS011;43953;45.508;-122.806;2023-02-02T00:42:48;8.63;;;6.05;;
50851;SDS011;43953;45.508;-122.806;2023-02-02T00:43:20;7.88;;;6.05;;
50851;SDS011;43953;45.508;-122.806;2023-02-02T00:43:52;8.85;;;6.20;;
50851;SDS011;43953;45.508;-122.806;2023-02-02T00:44:42;8.75;;;6.10;;
50851;SDS011;43953;45.508;-122.806;2023-02-02T00:45:31;7.90;;;6.55;;
50851;SDS011;43953;45.508;-122.806;2023-02-02T00:46:03;8.60;;;6.28;;
50851;SDS011;43953;45.508;-122.806;2023-02-02T00:46:39;7.88;;;5.88;;
50851;SDS011;43953;45.508;-122.806;2023-02-02T00:47:12;7.32;;;6.22;;
50851;SDS011;43953;45.508;-122.806;2023-02-02T00:47:44;7.78;;;6.07;;
50851;SDS011;43953;45.508;-122.806;2023-02-02T00:48:19;8.50;;;6.60;;
50851;SDS011;43953;45.508;-122.806;2023-02-02T00:48:51;8.77;;;6.55;;
50851;SDS011;43953;45.508;-122.806;2023-02-02T00:49:22;9.95;;;6.72;;
50851;SDS011;43953;45.508;-122.806;2023-02-02T00:49:54;7.13;;;6.32;;
50851;SDS011;43953;45.508;-122.806;2023-02-02T00:50:26;9.27;;;6.40;;
50851;SDS011;43953;45.508;-122.806;2023-02-02T00:50:58;8.68;;;6.05;;
50851;SDS011;43953;45.508;-122.806;2023-02-02T00:51:29;9.15;;;6.57;;
50851;SDS011;43953;45.508;-122.806;2023-02-02T00:52:01;7.38;;;6.00;;
50851;SDS011;43953;45.508;-122.806;2023-02-02T00:52:33;8.68;;;6.38;;
50851;SDS011;43953;45.508;-122.806;2023-02-02T00:53:04;6.68;;;5.97;;
50851;SDS011;43953;45.508;-122.806;2023-02-02T00:53:36;10.00;;;6.25;;
50851;SDS011;43953;45.508;-122.806;2023-02-02T00:54:08;7.95;;;6.15;;
50851;SDS011;43953;45.508;-122.806;2023-02-02T00:54:39;8.23;;;6.63;;
50851;SDS011;43953;45.508;-122.806;2023-02-02T00:55:11;8.40;;;6.25;;
50851;SDS011;43953;45.508;-122.806;2023-02-02T00:55:44;7.78;;;6.38;;
50851;SDS011;43953;45.508;-122.806;2023-02-02T00:56:15;7.68;;;6.03;;
50851;SDS011;43953;45.508;-122.806;2023-02-02T00:56:47;8.75;;;6.00;;
50851;SDS011;43953;45.508;-122.806;2023-02-02T00:57:19;7.78;;;5.72;;
50851;SDS011;43953;45.508;-122.806;2023-02-02T00:57:51;7.32;;;6.05;;
50851;SDS011;43953;45.508;-122.806;2023-02-02T00:58:23;8.57;;;5.82;;
50851;SDS011;43953;45.508;-122.806;2023-02-02T00:58:55;7.72;;;5.45;;
50851;SDS011;43953;45.508;-122.806;2023-02-02T00:59:26;7.38;;;5.88;;
50851;SDS011;43953;45.508;-122.806;2023-02-02T00:59:58;8.68;;;6.28;;
50851;SDS011;43953;45.508;-122.806;2023-02-02T01:00:30;9.20;;;6.40;;
50851;SDS011;43953;45.508;-122.806;2023-02-02T01:01:02;8.30;;;5.97;;
50851;SDS011;43953;45.508;-122.806;2023-02-02T01:01:34;6.82;;;5.65;;
50851;SDS011;43953;45.508;-122.806;2023-02-02T01:02:06;7.47;;;6.05;;
50851;SDS011;43953;45.508;-122.806;2023-02-02T01:02:39;7.75;;;5.93;;
50851;SDS011;43953;45.508;-122.806;2023-02-02T01:03:11;8.32;;;6.35;;
50851;SDS011;43953;45.508;-122.806;2023-02-02T01:03:43;9.00;;;6.40;;
50851;SDS011;43953;45.508;-122.806;2023-02-02T01:04:15;7.68;;;5.97;;
50851;SDS011;43953;45.508;-122.806;2023-02-02T01:04:47;7.20;;;5.80;;
50851;SDS011;43953;45.508;-122.806;2023-02-02T01:05:19;7.32;;;6.20;;
50851;SDS011;43953;45.508;-122.806;2023-02-02T01:05:51;7.53;;;6.18;;
50851;SDS011;43953;45.508;-122.806;2023-02-02T01:06:23;6.75;;;5.93;;
50851;SDS011;43953;45.508;-122.806;2023-02-02T01:06:55;7.97;;;5.65;;
50851;SDS011;43953;45.508;-122.806;2023-02-02T01:07:26;10.18;;;6.60;;
50851;SDS011;43953;45.508;-122.806;2023-02-02T01:07:58;10.27;;;6.43;;
50851;SDS011;43953;45.508;-122.806;2023-02-02T01:08:30;8.02;;;6.03;;
50851;SDS011;43953;45.508;-122.806;2023-02-02T01:09:02;8.90;;;6.30;;
50851;SDS011;43953;45.508;-122.806;2023-02-02T01:09:34;8.45;;;6.30;;
50851;SDS011;43953;45.508;-122.806;2023-02-02T01:10:06;8.63;;;6.40;;
50851;SDS011;43953;45.508;-122.806;2023-02-02T01:10:42;7.88;;;5.70;;
50851;SDS011;43953;45.508;-122.806;2023-02-02T01:11:14;8.05;;;6.20;;
50851;SDS011;43953;45.508;-122.806;2023-02-02T01:11:47;7.60;;;6.15;;
50851;SDS011;43953;45.508;-122.806;2023-02-02T01:12:19;7.90;;;6.50;;
50851;SDS011;43953;45.508;-122.806;2023-02-02T01:12:51;9.18;;;6.00;;
50851;SDS011;43953;45.508;-122.806;2023-02-02T01:13:22;7.28;;;6.00;;
50851;SDS011;43953;45.508;-122.806;2023-02-02T01:13:54;8.30;;;6.00;;
50851;SDS011;43953;45.508;-122.806;2023-02-02T01:14:26;9.88;;;6.60;;
50851;SDS011;43953;45.508;-122.806;2023-02-02T01:14:58;7.88;;;6.25;;
50851;SDS011;43953;45.508;-122.806;2023-02-02T01:15:30;7.35;;;5.85;;
50851;SDS011;43953;45.508;-122.806;2023-02-02T01:16:02;8.23;;;6.40;;
50851;SDS011;43953;45.508;-122.806;2023-02-02T01:16:34;8.27;;;6.05;;
50851;SDS011;43953;45.508;-122.806;2023-02-02T01:17:06;7.78;;;6.30;;
50851;SDS011;43953;45.508;-122.806;2023-02-02T01:17:38;8.50;;;6.90;;
50851;SDS011;43953;45.508;-122.806;2023-02-02T01:18:10;9.77;;;6.18;;
50851;SDS011;43953;45.508;-122.806;2023-02-02T01:18:42;8.32;;;6.43;;
50851;SDS011;43953;45.508;-122.806;2023-02-02T01:19:14;8.90;;;6.28;;
50851;SDS011;43953;45.508;-122.806;2023-02-02T01:19:46;8.50;;;6.43;;
50851;SDS011;43953;45.508;-122.806;2023-02-02T01:20:18;9.50;;;6.82;;
50851;SDS011;43953;45.508;-122.806;2023-02-02T01:21:00;9.93;;;6.72;;
50851;SDS011;43953;45.508;-122.806;2023-02-02T01:21:34;7.80;;;6.22;;
50851;SDS011;43953;45.508;-122.806;2023-02-02T01:22:07;8.82;;;6.97;;
50851;SDS011;43953;45.508;-122.806;2023-02-02T01:22:39;8.27;;;7.00;;
50851;SDS011;43953;45.508;-122.806;2023-02-02T01:23:11;9.30;;;7.38;;
50851;SDS011;43953;45.508;-122.806;2023-02-02T01:23:42;9.25;;;6.63;;
50851;SDS011;43953;45.508;-122.806;2023-02-02T01:24:14;8.45;;;6.95;;
50851;SDS011;43953;45.508;-122.806;2023-02-02T01:24:46;9.88;;;6.85;;
50851;SDS011;43953;45.508;-122.806;2023-02-02T01:25:18;8.63;;;6.75;;
50851;SDS011;43953;45.508;-122.806;2023-02-02T01:25:56;9.05;;;6.97;;
50851;SDS011;43953;45.508;-122.806;2023-02-02T01:26:29;9.45;;;7.10;;
50851;SDS011;43953;45.508;-122.806;2023-02-02T01:27:01;9.25;;;7.00;;
50851;SDS011;43953;45.508;-122.806;2023-02-02T01:27:33;10.00;;;7.38;;
50851;SDS011;43953;45.508;-122.806;2023-02-02T01:28:04;9.75;;;7.00;;
50851;SDS011;43953;45.508;-122.806;2023-02-02T01:28:36;9.48;;;7.32;;
50851;SDS011;43953;45.508;-122.806;2023-02-02T01:29:09;9.13;;;7.85;;
50851;SDS011;43953;45.508;-122.806;2023-02-02T01:29:40;9.85;;;7.55;;
50851;SDS011;43953;45.508;-122.806;2023-02-02T01:30:12;10.98;;;7.22;;
50851;SDS011;43953;45.508;-122.806;2023-02-02T01:30:44;10.48;;;7.90;;
50851;SDS011;43953;45.508;-122.806;2023-02-02T01:31:16;10.40;;;7.53;;
50851;SDS011;43953;45.508;-122.806;2023-02-02T01:31:49;11.48;;;7.78;;
50851;SDS011;43953;45.508;-122.806;2023-02-02T01:32:21;10.43;;;7.65;;
50851;SDS011;43953;45.508;-122.806;2023-02-02T01:32:52;10.13;;;7.63;;
50851;SDS011;43953;45.508;-122.806;2023-02-02T01:33:24;10.45;;;7.88;;
50851;SDS011;43953;45.508;-122.806;2023-02-02T01:33:56;9.48;;;7.28;;
50851;SDS011;43953;45.508;-122.806;2023-02-02T01:34:27;9.52;;;7.28;;
50851;SDS011;43953;45.508;-122.806;2023-02-02T01:34:59;10.90;;;8.00;;
50851;SDS011;43953;45.508;-122.806;2023-02-02T01:35:31;11.38;;;7.72;;
50851;SDS011;43953;45.508;-122.806;2023-02-02T01:36:04;10.68;;;8.18;;
50851;SDS011;43953;45.508;-122.806;2023-02-02T01:36:37;11.70;;;7.85;;
50851;SDS011;43953;45.508;-122.806;2023-02-02T01:37:09;11.00;;;7.53;;
50851;SDS011;43953;45.508;-122.806;2023-02-02T01:37:41;10.75;;;8.10;;
50851;SDS011;43953;45.508;-122.806;2023-02-02T01:38:13;9.63;;;7.78;;
50851;SDS011;43953;45.508;-122.806;2023-02-02T01:38:46;10.88;;;7.57;;
50851;SDS011;43953;45.508;-122.806;2023-02-02T01:39:18;11.57;;;8.45;;
50851;SDS011;43953;45.508;-122.806;2023-02-02T01:39:50;12.52;;;7.82;;
50851;SDS011;43953;45.508;-122.806;2023-02-02T01:40:22;12.63;;;8.20;;
50851;SDS011;43953;45.508;-122.806;2023-02-02T01:40:54;10.10;;;8.00;;
50851;SDS011;43953;45.508;-122.806;2023-02-02T01:41:26;11.38;;;8.65;;
50851;SDS011;43953;45.508;-122.806;2023-02-02T01:41:59;10.25;;;8.30;;
50851;SDS011;43953;45.508;-122.806;2023-02-02T01:42:30;12.43;;;8.75;;
50851;SDS011;43953;45.508;-122.806;2023-02-02T01:43:02;12.18;;;8.68;;
50851;SDS011;43953;45.508;-122.806;2023-02-02T01:43:53;10.38;;;7.88;;
50851;SDS011;43953;45.508;-122.806;2023-02-02T01:45:28;10.15;;;8.18;;
50851;SDS011;43953;45.508;-122.806;2023-02-02T01:46:00;11.30;;;8.23;;
50851;SDS011;43953;45.508;-122.806;2023-02-02T01:46:33;12.50;;;8.73;;
50851;SDS011;43953;45.508;-122.806;2023-02-02T01:47:06;12.35;;;8.32;;
50851;SDS011;43953;45.508;-122.806;2023-02-02T01:47:42;11.95;;;8.90;;
50851;SDS011;43953;45.508;-122.806;2023-02-02T01:48:30;12.18;;;9.00;;
50851;SDS011;43953;45.508;-122.806;2023-02-02T01:49:40;14.52;;;8.98;;
50851;SDS011;43953;45.508;-122.806;2023-02-02T01:50:12;11.07;;;9.18;;
50851;SDS011;43953;45.508;-122.806;2023-02-02T01:50:46;12.95;;;8.68;;
50851;SDS011;43953;45.508;-122.806;2023-02-02T01:51:25;13.18;;;9.15;;
50851;SDS011;43953;45.508;-122.806;2023-02-02T01:52:12;13.77;;;9.65;;
50851;SDS011;43953;45.508;-122.806;2023-02-02T01:52:47;13.05;;;9.63;;
50851;SDS011;43953;45.508;-122.806;2023-02-02T01:53:22;11.88;;;9.05;;
50851;SDS011;43953;45.508;-122.806;2023-02-02T01:53:55;12.23;;;9.07;;
50851;SDS011;43953;45.508;-122.806;2023-02-02T01:54:33;15.05;;;9.65;;
50851;SDS011;43953;45.508;-122.806;2023-02-02T01:55:09;14.15;;;9.88;;
50851;SDS011;43953;45.508;-122.806;2023-02-02T01:55:43;14.88;;;10.15;;
50851;SDS011;43953;45.508;-122.806;2023-02-02T01:56:16;13.05;;;9.63;;
50851;SDS011;43953;45.508;-122.806;2023-02-02T01:58:08;12.02;;;9.48;;
50851;SDS011;43953;45.508;-122.806;2023-02-02T01:58:42;13.05;;;9.70;;
50851;SDS011;43953;45.508;-122.806;2023-02-02T01:59:15;12.52;;;10.07;;
50851;SDS011;43953;45.508;-122.806;2023-02-02T01:59:48;14.55;;;9.98;;
50851;SDS011;43953;45.508;-122.806;2023-02-02T02:00:23;12.43;;;9.98;;
50851;SDS011;43953;45.508;-122.806;2023-02-02T02:00:57;13.90;;;10.60;;
50851;SDS011;43953;45.508;-122.806;2023-02-02T02:01:28;14.57;;;10.00;;
50851;SDS011;43953;45.508;-122.806;2023-02-02T02:02:00;14.02;;;10.93;;
50851;SDS011;43953;45.508;-122.806;2023-02-02T02:02:33;14.10;;;10.43;;
50851;SDS011;43953;45.508;-122.806;2023-02-02T02:03:06;15.88;;;10.68;;
50851;SDS011;43953;45.508;-122.806;2023-02-02T02:03:41;12.88;;;10.20;;
50851;SDS011;43953;45.508;-122.806;2023-02-02T02:04:13;11.48;;;10.15;;
50851;SDS011;43953;45.508;-122.806;2023-02-02T02:04:46;15.05;;;10.50;;
50851;SDS011;43953;45.508;-122.806;2023-02-02T02:05:24;15.23;;;10.38;;
50851;SDS011;43953;45.508;-122.806;2023-02-02T02:06:15;15.13;;;10.50;;
50851;SDS011;43953;45.508;-122.806;2023-02-02T02:06:48;15.65;;;10.95;;
50851;SDS011;43953;45.508;-122.806;2023-02-02T02:07:23;13.95;;;10.48;;
50851;SDS011;43953;45.508;-122.806;2023-02-02T02:07:56;13.00;;;10.82;;
50851;SDS011;43953;45.508;-122.806;2023-02-02T02:08:38;14.45;;;11.45;;
50851;SDS011;43953;45.508;-122.806;2023-02-02T02:09:13;16.35;;;11.27;;
50851;SDS011;43953;45.508;-122.806;2023-02-02T02:09:44;16.02;;;11.70;;
50851;SDS011;43953;45.508;-122.806;2023-02-02T02:10:16;14.52;;;10.93;;
50851;SDS011;43953;45.508;-122.806;2023-02-02T02:10:49;13.68;;;11.20;;
50851;SDS011;43953;45.508;-122.806;2023-02-02T02:11:21;15.70;;;11.25;;
50851;SDS011;43953;45.508;-122.806;2023-02-02T02:11:53;15.52;;;11.43;;
50851;SDS011;43953;45.508;-122.806;2023-02-02T02:12:25;15.00;;;12.27;;
50851;SDS011;43953;45.508;-122.806;2023-02-02T02:12:57;16.60;;;12.27;;
50851;SDS011;43953;45.508;-122.806;2023-02-02T02:13:29;16.80;;;11.55;;
50851;SDS011;43953;45.508;-122.806;2023-02-02T02:14:22;15.30;;;11.65;;
50851;SDS011;43953;45.508;-122.806;2023-02-02T02:15:12;15.75;;;11.93;;
50851;SDS011;43953;45.508;-122.806;2023-02-02T02:16:23;15.65;;;11.23;;
50851;SDS011;43953;45.508;-122.806;2023-02-02T02:18:54;16.63;;;11.05;;
50851;SDS011;43953;45.508;-122.806;2023-02-02T02:23:01;15.63;;;11.05;;
50851;SDS011;43953;45.508;-122.806;2023-02-02T02:29:11;14.25;;;10.07;;
50851;SDS011;43953;45.508;-122.806;2023-02-02T02:32:04;15.68;;;11.77;;
50851;SDS011;43953;45.508;-122.806;2023-02-02T02:33:45;17.75;;;11.55;;
50851;SDS011;43953;45.508;-122.806;2023-02-02T02:34:25;15.55;;;10.80;;
50851;SDS011;43953;45.508;-122.806;2023-02-02T02:35:33;17.63;;;11.75;;
50851;SDS011;43953;45.508;-122.806;2023-02-02T02:38:29;19.52;;;12.18;;
50851;SDS011;43953;45.508;-122.806;2023-02-02T02:40:13;17.23;;;11.77;;
50851;SDS011;43953;45.508;-122.806;2023-02-02T02:40:53;16.85;;;11.35;;
50851;SDS011;43953;45.508;-122.806;2023-02-02T02:41:30;16.92;;;12.05;;
50851;SDS011;43953;45.508;-122.806;2023-02-02T02:42:15;19.05;;;12.60;;
50851;SDS011;43953;45.508;-122.806;2023-02-02T02:42:53;15.75;;;12.18;;
50851;SDS011;43953;45.508;-122.806;2023-02-02T02:43:32;18.48;;;12.07;;
50851;SDS011;43953;45.508;-122.806;2023-02-02T02:44:11;17.80;;;12.20;;
50851;SDS011;43953;45.508;-122.806;2023-02-02T02:44:46;18.05;;;13.40;;
50851;SDS011;43953;45.508;-122.806;2023-02-02T02:45:19;18.02;;;12.45;;
50851;SDS011;43953;45.508;-122.806;2023-02-02T02:45:54;17.88;;;12.40;;
50851;SDS011;43953;45.508;-122.806;2023-02-02T02:46:26;18.88;;;12.63;;
50851;SDS011;43953;45.508;-122.806;2023-02-02T02:46:58;18.85;;;13.43;;
50851;SDS011;43953;45.508;-122.806;2023-02-02T02:47:30;16.67;;;12.70;;
50851;SDS011;43953;45.508;-122.806;2023-02-02T02:48:03;18.00;;;12.43;;
50851;SDS011;43953;45.508;-122.806;2023-02-02T02:48:35;17.83;;;13.27;;
50851;SDS011;43953;45.508;-122.806;2023-02-02T02:49:10;17.98;;;12.40;;
50851;SDS011;43953;45.508;-122.806;2023-02-02T02:49:44;18.27;;;13.10;;
50851;SDS011;43953;45.508;-122.806;2023-02-02T02:50:17;16.13;;;12.75;;
50851;SDS011;43953;45.508;-122.806;2023-02-02T02:50:49;15.90;;;13.02;;
50851;SDS011;43953;45.508;-122.806;2023-02-02T02:52:14;17.27;;;12.23;;
50851;SDS011;43953;45.508;-122.806;2023-02-02T02:52:46;17.77;;;12.70;;
50851;SDS011;43953;45.508;-122.806;2023-02-02T02:53:30;15.77;;;12.18;;
50851;SDS011;43953;45.508;-122.806;2023-02-02T02:54:03;16.85;;;12.18;;
50851;SDS011;43953;45.508;-122.806;2023-02-02T02:54:36;15.40;;;11.98;;
50851;SDS011;43953;45.508;-122.806;2023-02-02T02:55:19;16.20;;;12.05;;
50851;SDS011;43953;45.508;-122.806;2023-02-02T02:56:01;16.67;;;12.40;;
50851;SDS011;43953;45.508;-122.806;2023-02-02T02:57:37;17.58;;;11.35;;
50851;SDS011;43953;45.508;-122.806;2023-02-02T02:58:16;17.13;;;12.20;;
50851;SDS011;43953;45.508;-122.806;2023-02-02T02:59:03;14.65;;;11.73;;
50851;SDS011;43953;45.508;-122.806;2023-02-02T03:04:50;20.75;;;13.02;;
50851;SDS011;43953;45.508;-122.806;2023-02-02T03:07:25;19.95;;;13.43;;
50851;SDS011;43953;45.508;-122.806;2023-02-02T03:08:29;19.55;;;12.65;;
50851;SDS011;43953;45.508;-122.806;2023-02-02T03:09:04;17.80;;;12.50;;
50851;SDS011;43953;45.508;-122.806;2023-02-02T03:09:41;18.77;;;12.63;;
50851;SDS011;43953;45.508;-122.806;2023-02-02T03:10:15;18.08;;;11.70;;
50851;SDS011;43953;45.508;-122.806;2023-02-02T03:10:52;17.45;;;12.82;;
50851;SDS011;43953;45.508;-122.806;2023-02-02T03:11:27;16.08;;;12.45;;
50851;SDS011;43953;45.508;-122.806;2023-02-02T03:11:59;19.65;;;13.40;;
50851;SDS011;43953;45.508;-122.806;2023-02-02T03:12:31;19.02;;;13.75;;
50851;SDS011;43953;45.508;-122.806;2023-02-02T03:13:10;18.25;;;13.90;;
50851;SDS011;43953;45.508;-122.806;2023-02-02T03:13:43;20.08;;;14.05;;
50851;SDS011;43953;45.508;-122.806;2023-02-02T03:14:14;17.17;;;12.27;;
50851;SDS011;43953;45.508;-122.806;2023-02-02T03:14:46;17.08;;;12.38;;
50851;SDS011;43953;45.508;-122.806;2023-02-02T03:15:18;19.95;;;12.98;;
50851;SDS011;43953;45.508;-122.806;2023-02-02T03:15:50;19.13;;;14.00;;
50851;SDS011;43953;45.508;-122.806;2023-02-02T03:16:22;16.25;;;12.52;;
50851;SDS011;43953;45.508;-122.806;2023-02-02T03:16:53;19.95;;;12.20;;
50851;SDS011;43953;45.508;-122.806;2023-02-02T03:17:26;15.20;;;11.90;;
50851;SDS011;43953;45.508;-122.806;2023-02-02T03:17:58;16.05;;;13.23;;
50851;SDS011;43953;45.508;-122.806;2023-02-02T03:18:30;15.25;;;11.30;;
50851;SDS011;43953;45.508;-122.806;2023-02-02T03:19:04;16.65;;;12.38;;
50851;SDS011;43953;45.508;-122.806;2023-02-02T03:19:37;17.15;;;12.88;;
50851;SDS011;43953;45.508;-122.806;2023-02-02T03:20:09;17.58;;;13.02;;
50851;SDS011;43953;45.508;-122.806;2023-02-02T03:20:41;18.58;;;13.18;;
50851;SDS011;43953;45.508;-122.806;2023-02-02T03:21:15;17.52;;;12.95;;
50851;SDS011;43953;45.508;-122.806;2023-02-02T03:21:46;21.13;;;13.18;;
50851;SDS011;43953;45.508;-122.806;2023-02-02T03:22:18;17.55;;;12.50;;
50851;SDS011;43953;45.508;-122.806;2023-02-02T03:22:50;18.58;;;12.38;;
50851;SDS011;43953;45.508;-122.806;2023-02-02T03:23:21;20.55;;;13.02;;
50851;SDS011;43953;45.508;-122.806;2023-02-02T03:23:53;18.70;;;12.38;;
50851;SDS011;43953;45.508;-122.806;2023-02-02T03:24:25;18.63;;;12.40;;
50851;SDS011;43953;45.508;-122.806;2023-02-02T03:24:57;17.15;;;12.93;;
50851;SDS011;43953;45.508;-122.806;2023-02-02T03:25:29;17.63;;;12.85;;
50851;SDS011;43953;45.508;-122.806;2023-02-02T03:26:01;20.80;;;13.70;;
50851;SDS011;43953;45.508;-122.806;2023-02-02T03:26:32;19.13;;;13.27;;
50851;SDS011;43953;45.508;-122.806;2023-02-02T03:27:05;17.55;;;12.80;;
50851;SDS011;43953;45.508;-122.806;2023-02-02T03:27:37;19.77;;;13.38;;
50851;SDS011;43953;45.508;-122.806;2023-02-02T03:28:09;17.63;;;12.57;;
50851;SDS011;43953;45.508;-122.806;2023-02-02T03:28:41;18.85;;;13.38;;
50851;SDS011;43953;45.508;-122.806;2023-02-02T03:29:13;17.50;;;13.27;;
50851;SDS011;43953;45.508;-122.806;2023-02-02T03:29:45;18.52;;;13.15;;
50851;SDS011;43953;45.508;-122.806;2023-02-02T03:30:17;19.27;;;13.90;;
50851;SDS011;43953;45.508;-122.806;2023-02-02T03:30:49;21.17;;;13.35;;
50851;SDS011;43953;45.508;-122.806;2023-02-02T03:31:22;19.63;;;12.57;;
50851;SDS011;43953;45.508;-122.806;2023-02-02T03:31:56;17.30;;;13.05;;
50851;SDS011;43953;45.508;-122.806;2023-02-02T03:32:28;18.90;;;12.65;;
50851;SDS011;43953;45.508;-122.806;2023-02-02T03:33:00;18.83;;;13.27;;
50851;SDS011;43953;45.508;-122.806;2023-02-02T03:33:32;19.70;;;13.82;;
50851;SDS011;43953;45.508;-122.806;2023-02-02T03:34:07;21.23;;;14.07;;
50851;SDS011;43953;45.508;-122.806;2023-02-02T03:34:39;20.40;;;14.38;;
50851;SDS011;43953;45.508;-122.806;2023-02-02T03:35:10;18.73;;;13.82;;
50851;SDS011;43953;45.508;-122.806;2023-02-02T03:35:42;18.95;;;14.05;;
50851;SDS011;43953;45.508;-122.806;2023-02-02T03:36:14;19.90;;;14.50;;
50851;SDS011;43953;45.508;-122.806;2023-02-02T03:36:45;19.27;;;13.70;;
50851;SDS011;43953;45.508;-122.806;2023-02-02T03:37:17;20.60;;;13.77;;
50851;SDS011;43953;45.508;-122.806;2023-02-02T03:37:49;20.35;;;14.73;;
50851;SDS011;43953;45.508;-122.806;2023-02-02T03:38:20;25.35;;;15.32;;
50851;SDS011;43953;45.508;-122.806;2023-02-02T03:38:52;20.75;;;14.15;;
50851;SDS011;43953;45.508;-122.806;2023-02-02T03:39:24;19.90;;;13.32;;
50851;SDS011;43953;45.508;-122.806;2023-02-02T03:39:55;18.13;;;13.48;;
50851;SDS011;43953;45.508;-122.806;2023-02-02T03:40:27;20.98;;;14.32;;
50851;SDS011;43953;45.508;-122.806;2023-02-02T03:40:59;19.92;;;14.05;;
50851;SDS011;43953;45.508;-122.806;2023-02-02T03:41:31;23.63;;;14.95;;
50851;SDS011;43953;45.508;-122.806;2023-02-02T03:42:03;25.45;;;14.85;;